createdAt,value
2023-03-07T00:01:41.132Z,5.57
2023-03-07T00:06:33.039Z,5.00
2023-03-07T00:11:25.515Z,5.00
2023-03-07T00:16:19.918Z,5.68
2023-03-07T00:21:14.041Z,5.88
2023-03-07T00:26:08.945Z,5.28
2023-03-07T00:31:02.950Z,5.32
2023-03-07T00:35:59.333Z,4.95
2023-03-07T00:41:06.756Z,5.05
2023-03-07T00:45:59.081Z,4.70
2023-03-07T00:50:51.570Z,4.93
2023-03-07T00:55:52.743Z,4.67
2023-03-07T01:00:45.895Z,5.15
2023-03-07T01:10:33.666Z,5.70
2023-03-07T01:15:26.069Z,5.82
2023-03-07T01:20:18.563Z,5.45
2023-03-07T01:25:12.084Z,4.43
2023-03-07T01:30:06.441Z,4.80
2023-03-07T01:34:59.683Z,4.30
2023-03-07T01:39:53.077Z,4.57
2023-03-07T01:44:59.440Z,4.22
2023-03-07T01:49:57.345Z,4.38
2023-03-07T01:54:52.883Z,4.57
2023-03-07T01:59:49.378Z,4.88
2023-03-07T02:04:54.917Z,4.63
2023-03-07T02:09:48.287Z,4.13
2023-03-07T02:14:43.236Z,3.90
2023-03-07T02:19:44.211Z,4.32
2023-03-07T02:24:57.949Z,3.67
2023-03-07T02:29:49.999Z,3.92
2023-03-07T02:34:42.394Z,3.85
2023-03-07T02:39:47.812Z,4.03
2023-03-07T02:44:41.214Z,3.92
2023-03-07T02:49:33.215Z,3.95
2023-03-07T02:54:25.351Z,3.50
2023-03-07T02:59:17.775Z,4.47
2023-03-07T03:04:09.889Z,4.25
2023-03-07T03:09:03.892Z,3.97
2023-03-07T03:13:58.895Z,3.80
2023-03-07T03:18:53.023Z,4.10
2023-03-07T03:23:44.900Z,4.53
2023-03-07T03:28:37.759Z,3.88
2023-03-07T03:33:30.444Z,4.55
2023-03-07T03:38:26.922Z,3.85
2023-03-07T03:43:20.397Z,3.50
2023-03-07T03:48:12.498Z,3.78
2023-03-07T03:53:04.550Z,3.25
2023-03-07T03:57:56.484Z,3.50
2023-03-07T04:02:48.476Z,4.38
2023-03-07T04:07:46.018Z,3.55
2023-03-07T04:12:38.050Z,3.95
2023-03-07T04:17:30.653Z,3.90
2023-03-07T04:22:22.767Z,3.17
2023-03-07T04:27:14.821Z,3.25
2023-03-07T04:32:13.087Z,3.55
2023-03-07T04:37:38.376Z,3.53
2023-03-07T04:42:30.709Z,3.58
2023-03-07T04:47:22.583Z,3.42
2023-03-07T04:52:14.598Z,4.30
2023-03-07T04:57:06.843Z,3.90
2023-03-07T05:02:00.145Z,3.50
2023-03-07T05:06:54.698Z,3.55
2023-03-07T05:11:46.680Z,3.15
2023-03-07T05:16:38.622Z,3.88
2023-03-07T05:21:31.738Z,4.13
2023-03-07T05:26:25.738Z,3.85
2023-03-07T05:31:18.620Z,3.42
2023-03-07T05:36:11.825Z,3.88
2023-03-07T05:41:04.194Z,3.50
2023-03-07T05:45:56.688Z,3.45
2023-03-07T05:50:48.667Z,4.05
2023-03-07T05:55:42.485Z,3.70
2023-03-07T06:00:34.540Z,3.45
2023-03-07T06:05:26.847Z,3.70
2023-03-07T06:10:18.869Z,3.15
2023-03-07T06:15:11.456Z,3.25
2023-03-07T06:20:04.242Z,3.72
2023-03-07T06:24:56.791Z,3.63
2023-03-07T06:29:48.789Z,4.15
2023-03-07T06:34:40.926Z,3.40
2023-03-07T06:39:33.426Z,3.80
2023-03-07T06:44:27.348Z,3.53
2023-03-07T06:49:19.179Z,3.50
2023-03-07T06:54:13.070Z,5.32
2023-03-07T06:59:05.329Z,5.20
2023-03-07T07:03:57.714Z,5.00
2023-03-07T07:08:50.201Z,3.83
2023-03-07T07:13:42.198Z,3.95
2023-03-07T07:18:36.446Z,3.97
2023-03-07T07:23:30.403Z,4.50
2023-03-07T07:28:22.973Z,4.15
2023-03-07T07:33:15.044Z,3.97
2023-03-07T07:38:09.380Z,3.60
2023-03-07T07:43:01.649Z,4.32
2023-03-07T07:48:09.738Z,4.63
2023-03-07T07:53:01.873Z,4.95
2023-03-07T07:57:53.830Z,4.57
2023-03-07T08:02:45.808Z,4.25
2023-03-07T08:07:37.725Z,7.10
2023-03-07T08:12:29.552Z,6.43
2023-03-07T08:17:21.386Z,4.95
2023-03-07T08:22:13.446Z,4.82
2023-03-07T08:27:05.571Z,5.57
2023-03-07T08:31:57.536Z,5.38
2023-03-07T08:36:49.385Z,7.28
2023-03-07T08:41:41.338Z,5.63
2023-03-07T08:46:33.326Z,6.68
2023-03-07T08:51:25.257Z,6.45
2023-03-07T08:56:18.596Z,7.00
2023-03-07T09:01:11.125Z,5.85
2023-03-07T09:06:04.257Z,5.70
2023-03-07T09:10:56.944Z,8.45
2023-03-07T09:15:48.769Z,7.30
2023-03-07T09:20:41.118Z,5.95
2023-03-07T09:25:33.345Z,6.20
2023-03-07T09:30:27.213Z,6.55
2023-03-07T09:35:19.071Z,7.90
2023-03-07T09:40:23.749Z,7.40
2023-03-07T09:45:18.836Z,6.88
2023-03-07T09:50:23.722Z,7.82
2023-03-07T09:55:18.728Z,8.13
2023-03-07T10:00:19.096Z,6.47
2023-03-07T10:05:29.084Z,7.53
2023-03-07T10:10:24.004Z,8.52
2023-03-07T10:15:19.252Z,7.65
2023-03-07T10:20:32.404Z,6.68
2023-03-07T10:25:24.372Z,8.25
2023-03-07T10:30:21.069Z,7.03
2023-03-07T10:35:16.003Z,6.60
2023-03-07T10:40:17.411Z,7.32
2023-03-07T10:45:13.904Z,7.15
2023-03-07T10:50:29.322Z,10.65
2023-03-07T10:55:39.719Z,8.63
2023-03-07T11:00:31.630Z,8.50
2023-03-07T11:05:32.966Z,9.02
2023-03-07T11:10:40.617Z,8.60
2023-03-07T11:15:32.641Z,13.45
2023-03-07T11:20:25.905Z,11.48
2023-03-07T11:25:26.694Z,12.25
2023-03-07T11:30:34.695Z,12.00
2023-03-07T11:35:45.508Z,11.32
2023-03-07T11:40:45.263Z,9.95
2023-03-07T11:45:51.361Z,11.07
2023-03-07T11:50:51.459Z,9.82
2023-03-07T11:56:11.008Z,9.57
2023-03-07T12:01:12.151Z,8.57
2023-03-07T12:06:27.107Z,9.55
2023-03-07T12:11:44.356Z,8.80
2023-03-07T12:17:01.128Z,8.15
2023-03-07T12:22:05.935Z,7.68
2023-03-07T12:27:04.430Z,7.80
2023-03-07T12:31:59.370Z,8.73
2023-03-07T12:36:55.891Z,8.57
2023-03-07T12:41:56.957Z,8.52
2023-03-07T12:46:57.229Z,7.88
2023-03-07T12:52:00.925Z,8.05
2023-03-07T12:57:06.461Z,7.28
2023-03-07T13:02:06.781Z,8.60
2023-03-07T13:07:23.826Z,6.85
2023-03-07T13:12:25.447Z,7.38
2023-03-07T13:17:35.403Z,6.22
2023-03-07T13:22:27.337Z,6.95
2023-03-07T13:27:53.394Z,7.68
2023-03-07T13:32:51.123Z,6.25
2023-03-07T13:38:07.803Z,6.35
2023-03-07T13:42:59.760Z,4.53
2023-03-07T13:47:51.709Z,4.20
2023-03-07T13:52:44.631Z,4.43
2023-03-07T13:57:39.135Z,4.18
2023-03-07T14:02:31.179Z,3.53
2023-03-07T14:07:31.988Z,3.90
2023-03-07T14:12:35.934Z,3.50
2023-03-07T14:17:44.508Z,3.65
2023-03-07T14:22:55.374Z,3.80
2023-03-07T14:28:02.126Z,3.60
2023-03-07T14:32:54.390Z,3.85
2023-03-07T14:37:46.284Z,4.17
2023-03-07T14:43:05.564Z,4.00
2023-03-07T14:48:12.503Z,3.75
2023-03-07T14:53:07.211Z,4.25
2023-03-07T14:57:59.565Z,3.95
2023-03-07T15:03:08.020Z,4.80
2023-03-07T15:07:59.941Z,5.47
2023-03-07T15:12:54.239Z,5.40
2023-03-07T15:17:46.398Z,12.50
2023-03-07T15:22:39.809Z,9.85
2023-03-07T15:27:32.310Z,7.68
2023-03-07T15:32:30.277Z,6.33
2023-03-07T15:37:24.325Z,8.55
2023-03-07T15:42:23.532Z,10.52
2023-03-07T15:47:17.172Z,9.05
2023-03-07T15:52:21.663Z,9.15
2023-03-07T15:57:19.150Z,7.22
2023-03-07T16:02:32.844Z,9.95
2023-03-07T16:07:24.835Z,12.48
2023-03-07T16:12:19.891Z,10.15
2023-03-07T16:17:31.292Z,9.82
2023-03-07T16:22:23.194Z,9.77
2023-03-07T16:27:22.917Z,10.13
2023-03-07T16:32:17.432Z,9.10
2023-03-07T16:37:09.297Z,8.30
2023-03-07T16:42:01.218Z,9.95
2023-03-07T16:46:58.129Z,10.95
2023-03-07T16:52:04.648Z,10.48
2023-03-07T16:56:58.553Z,10.23
2023-03-07T17:01:51.883Z,10.60
2023-03-07T17:06:44.089Z,12.00
2023-03-07T17:11:36.738Z,9.85
2023-03-07T17:16:29.208Z,10.55
2023-03-07T17:21:22.080Z,9.70
2023-03-07T17:26:18.673Z,9.75
2023-03-07T17:31:10.852Z,9.35
2023-03-07T17:36:02.859Z,11.10
2023-03-07T17:40:55.916Z,8.35
2023-03-07T17:45:47.890Z,9.10
2023-03-07T17:50:41.025Z,10.25
2023-03-07T18:00:25.549Z,9.23
2023-03-07T18:05:19.251Z,9.35
2023-03-07T18:10:12.743Z,7.65
2023-03-07T18:15:08.809Z,8.48
2023-03-07T18:20:00.657Z,7.93
2023-03-07T18:24:53.776Z,7.82
2023-03-07T18:29:46.496Z,8.02
2023-03-07T18:34:38.589Z,7.43
2023-03-07T18:39:33.500Z,7.20
2023-03-07T18:44:26.130Z,7.53
2023-03-07T18:49:20.056Z,8.75
2023-03-07T18:54:19.117Z,7.97
2023-03-07T18:59:10.981Z,7.75
2023-03-07T19:04:05.265Z,7.65
2023-03-07T19:08:58.260Z,6.63
2023-03-07T19:13:50.255Z,7.18
2023-03-07T19:18:43.334Z,6.90
2023-03-07T19:28:26.946Z,6.97
2023-03-07T19:33:18.796Z,6.45
2023-03-07T19:38:10.576Z,6.82
2023-03-07T19:43:02.383Z,6.97
2023-03-07T19:47:54.818Z,6.10
2023-03-07T19:52:46.624Z,6.87
2023-03-07T19:57:38.478Z,6.68
2023-03-07T20:02:30.546Z,6.43
2023-03-07T20:07:22.494Z,5.07
2023-03-07T20:12:14.801Z,6.15
2023-03-07T20:17:06.663Z,6.40
2023-03-07T20:21:59.995Z,5.30
2023-03-07T20:26:52.413Z,5.43
2023-03-07T20:31:44.544Z,5.70
2023-03-07T20:36:37.490Z,6.43
2023-03-07T20:41:31.281Z,5.35
2023-03-07T20:46:23.241Z,5.57
2023-03-07T20:51:20.842Z,7.50
2023-03-07T20:56:12.714Z,5.43
2023-03-07T21:01:04.663Z,5.38
2023-03-07T21:05:58.178Z,5.40
2023-03-07T21:11:02.459Z,5.97
2023-03-07T21:16:00.173Z,5.90
2023-03-07T21:20:52.038Z,5.72
2023-03-07T21:25:45.192Z,5.50
2023-03-07T21:35:29.278Z,4.82
2023-03-07T21:40:21.520Z,5.32
2023-03-07T21:45:14.556Z,5.10
2023-03-07T21:50:06.793Z,5.50
2023-03-07T21:54:58.675Z,4.50
2023-03-07T21:59:50.479Z,5.53
2023-03-07T22:04:42.247Z,5.03
2023-03-07T22:09:34.089Z,5.03
2023-03-07T22:14:26.254Z,4.25
2023-03-07T22:19:18.118Z,4.88
2023-03-07T22:24:11.412Z,5.03
2023-03-07T22:29:03.607Z,4.88
2023-03-07T22:33:55.631Z,4.30
2023-03-07T22:38:47.554Z,4.88
2023-03-07T22:43:39.897Z,5.65
2023-03-07T22:48:32.206Z,4.93
2023-03-07T22:53:27.092Z,4.23
2023-03-07T22:58:19.246Z,4.63
2023-03-07T23:03:12.032Z,4.35
2023-03-07T23:08:04.256Z,4.28
2023-03-07T23:12:56.481Z,4.50
2023-03-07T23:17:48.830Z,4.40
2023-03-07T23:22:42.802Z,4.93
2023-03-07T23:27:34.907Z,4.25
2023-03-07T23:32:26.980Z,4.07
2023-03-07T23:37:18.820Z,4.10
2023-03-07T23:42:13.809Z,4.07
2023-03-07T23:47:06.174Z,3.67
2023-03-07T23:51:58.259Z,4.20
2023-03-07T23:56:50.182Z,3.88
